Time;durP1;ratioP1;P1;durP2;ratioP2;P2;SDS_P1;SDS_P2;PMS_P1;PMS_P2;Temp;Humidity;BMP_temperature;BMP_pressure;BME280_temperature;BME280_humidity;BME280_pressure;Samples;Min_cycle;Max_cycle;Signal;HPM_P1;HPM_P2
2021/09/08 00:00:20;;;;;;;;;;;;;;;24.16;65.68;101526.25;7279724;19;151864;-50
2021/09/08 00:02:47;;;;;;;;;;;;;;;24.15;65.71;101521.72;7277415;19;153505;-51
2021/09/08 00:05:15;;;;;;;;;;;;;;;24.18;65.87;101517.44;7271784;19;152975;-51
2021/09/08 00:07:41;;;;;;;;;;;;;;;24.17;65.82;101516.59;7280481;19;152646;-51
2021/09/08 00:10:09;;;;;;;;;;;;;;;24.16;66.24;101514.94;7269281;19;153778;-51
2021/09/08 00:12:37;;;;;;;;;;;;;;;24.17;65.72;101516.59;7280489;19;151968;-51
2021/09/08 00:15:05;;;;;;;;;;;;;;;24.16;66.00;101516.94;7277990;19;153757;-50
2021/09/08 00:17:33;;;;;;;;;;;;;;;24.17;66.29;101510.94;7286021;19;153300;-51
2021/09/08 00:20:00;;;;;;;;;;;;;;;24.18;66.12;101517.44;7278176;19;154129;-51
2021/09/08 00:22:27;;;;;;;;;;;;;;;24.16;66.32;101506.47;7278376;19;154059;-50
2021/09/08 00:24:54;;;;;;;;;;;;;;;24.17;66.26;101508.13;7280661;19;153967;-51
2021/09/08 00:27:22;;;;;;;;;;;;;;;24.17;66.46;101508.13;7278128;19;152885;-50
2021/09/08 00:29:49;;;;;;;;;;;;;;;24.16;65.96;101505.63;7277740;19;153311;-50
2021/09/08 00:32:16;;;;;;;;;;;;;;;24.16;65.99;101495.19;7278384;19;152110;-49
2021/09/08 00:34:43;;;;;;;;;;;;;;;24.17;66.64;101498.81;7279405;19;153136;-51
2021/09/08 00:37:10;;;;;;;;;;;;;;;24.18;66.31;101498.50;7269258;19;154509;-51
2021/09/08 00:39:37;;;;;;;;;;;;;;;24.15;66.35;101492.63;7277336;19;152416;-50
2021/09/08 00:42:07;;;;;;;;;;;;;;;24.15;66.05;101490.66;7274728;19;153337;-51
2021/09/08 00:44:34;;;;;;;;;;;;;;;24.16;66.52;101492.34;7283385;19;153042;-50
2021/09/08 00:47:01;;;;;;;;;;;;;;;24.16;66.19;101498.00;7275182;19;153297;-51
2021/09/08 00:49:28;;;;;;;;;;;;;;;24.17;66.31;101494.00;7284374;19;153919;-51
2021/09/08 00:51:56;;;;;;;;;;;;;;;24.18;66.50;101494.84;7287467;19;151799;-51
2021/09/08 00:54:23;;;;;;;;;;;;;;;24.17;66.44;101488.34;7281921;19;153320;-51
2021/09/08 00:56:53;;;;;;;;;;;;;;;24.16;66.41;101489.53;7283339;19;153646;-50
2021/09/08 00:59:20;;;;;;;;;;;;;;;24.16;66.50;101483.88;7282451;19;151655;-51
2021/09/08 01:01:47;;;;;;;;;;;;;;;24.16;66.95;101480.22;7293110;19;152663;-51
2021/09/08 01:04:15;;;;;;;;;;;;;;;24.19;66.61;101479.56;7283671;19;151744;-51
2021/09/08 01:06:42;;;;;;;;;;;;;;;24.23;66.89;101478.59;7284793;19;152328;-51
2021/09/08 01:09:11;;;;;;;;;;;;;;;24.22;66.87;101471.28;7281478;19;155988;-51
2021/09/08 01:11:38;;;;;;;;;;;;;;;24.20;66.83;101467.97;7285456;19;152131;-51
2021/09/08 01:14:05;;;;;;;;;;;;;;;24.22;67.00;101473.28;7285749;19;152837;-52
2021/09/08 01:16:32;;;;;;;;;;;;;;;24.20;66.80;101465.13;7282712;19;153651;-51
2021/09/08 01:18:59;;;;;;;;;;;;;;;24.22;67.12;101454.34;7283875;19;152073;-51
2021/09/08 01:21:26;;;;;;;;;;;;;;;24.22;67.36;101459.16;7286873;19;152675;-51
2021/09/08 01:23:53;;;;;;;;;;;;;;;24.22;67.11;101457.16;7289084;19;153946;-50
2021/09/08 01:26:20;;;;;;;;;;;;;;;24.22;66.92;101460.00;7286270;19;153068;-51
2021/09/08 01:28:47;;;;;;;;;;;;;;;24.21;67.29;101458.31;7282077;19;153201;-51
2021/09/08 01:31:17;;;;;;;;;;;;;;;24.22;67.37;101454.34;7284560;19;151821;-51
2021/09/08 01:33:43;;;;;;;;;;;;;;;24.23;67.57;101452.34;7283398;19;154413;-50
2021/09/08 01:36:10;;;;;;;;;;;;;;;24.20;68.09;101445.38;7284687;19;153791;-50
2021/09/08 01:38:37;;;;;;;;;;;;;;;24.26;67.71;101448.88;7283881;19;152821;-51
2021/09/08 01:41:04;;;;;;;;;;;;;;;24.24;67.45;101446.41;7280115;19;152896;-50
2021/09/08 01:43:31;;;;;;;;;;;;;;;24.24;67.86;101440.75;7290044;19;153227;-51
2021/09/08 01:45:59;;;;;;;;;;;;;;;24.24;67.70;101440.75;7282970;19;152554;-51
2021/09/08 01:48:26;;;;;;;;;;;;;;;24.25;67.77;101444.41;7275299;19;154643;-51
2021/09/08 01:50:53;;;;;;;;;;;;;;;24.25;67.74;101442.44;7278852;19;151688;-51
2021/09/08 01:53:20;;;;;;;;;;;;;;;24.25;67.97;101448.06;7282778;19;153726;-51
2021/09/08 01:55:47;;;;;;;;;;;;;;;24.28;68.41;101435.28;7280322;19;154101;-51
2021/09/08 01:58:14;;;;;;;;;;;;;;;24.27;68.07;101445.75;7284498;19;151545;-51
2021/09/08 02:00:42;;;;;;;;;;;;;;;24.25;67.85;101442.44;7280264;19;152341;-51
2021/09/08 02:03:09;;;;;;;;;;;;;;;24.29;69.24;101434.97;7280879;19;153935;-51
2021/09/08 02:05:37;;;;;;;;;;;;;;;24.33;68.13;101432.31;7288600;19;151601;-50
2021/09/08 02:08:04;;;;;;;;;;;;;;;24.30;68.16;101425.31;7282802;19;154221;-51
2021/09/08 02:10:31;;;;;;;;;;;;;;;24.29;68.24;101434.97;7282445;19;151730;-51
2021/09/08 02:12:58;;;;;;;;;;;;;;;24.28;68.43;101433.28;7283945;19;153311;-51
2021/09/08 02:15:25;;;;;;;;;;;;;;;24.27;68.27;101423.16;7280335;19;153180;-50
2021/09/08 02:17:52;;;;;;;;;;;;;;;24.27;68.59;101430.78;7283452;19;152272;-50
2021/09/08 02:20:19;;;;;;;;;;;;;;;24.26;68.35;101418.66;7285153;19;153565;-51
2021/09/08 02:22:46;;;;;;;;;;;;;;;24.28;68.31;101424.00;7282633;19;153483;-50
2021/09/08 02:25:14;;;;;;;;;;;;;;;24.27;68.18;101413.84;7281512;19;151830;-51
2021/09/08 02:27:40;;;;;;;;;;;;;;;24.25;68.64;101414.19;7289431;19;153703;-50
2021/09/08 02:30:08;;;;;;;;;;;;;;;24.26;68.68;101412.16;7279939;19;151963;-51
2021/09/08 02:32:36;;;;;;;;;;;;;;;24.27;68.23;101408.19;7278787;19;151996;-51
2021/09/08 02:35:07;;;;;;;;;;;;;;;24.26;68.72;101409.34;7281581;19;153642;-51
2021/09/08 02:37:35;;;;;;;;;;;;;;;24.25;68.82;101408.53;7281032;19;151852;-51
2021/09/08 02:40:02;;;;;;;;;;;;;;;24.26;69.04;101403.69;7279502;19;153130;-51
2021/09/08 02:42:29;;;;;;;;;;;;;;;24.27;68.70;101394.91;7274901;19;154205;-51
2021/09/08 02:44:56;;;;;;;;;;;;;;;24.26;69.02;101398.03;7284013;19;152755;-51
2021/09/08 02:47:23;;;;;;;;;;;;;;;24.26;69.01;101392.41;7282601;19;152725;-51
2021/09/08 02:49:50;;;;;;;;;;;;;;;24.26;69.00;101389.56;7285749;19;153297;-52
2021/09/08 02:52:17;;;;;;;;;;;;;;;24.27;68.99;101391.25;7283714;19;153285;-51
2021/09/08 02:54:44;;;;;;;;;;;;;;;24.27;69.04;101388.41;7280059;19;154432;-51
2021/09/08 02:57:11;;;;;;;;;;;;;;;24.26;68.81;101387.59;7283862;19;151546;-51
2021/09/08 02:59:38;;;;;;;;;;;;;;;24.27;68.78;101383.63;7282057;19;153402;-51
2021/09/08 03:02:06;;;;;;;;;;;;;;;24.27;68.93;101380.78;7282404;19;153625;-51
2021/09/08 03:04:34;;;;;;;;;;;;;;;24.26;69.24;101373.47;7283075;19;152106;-50
2021/09/08 03:07:01;;;;;;;;;;;;;;;24.27;69.61;101374.31;7279963;19;152310;-51
2021/09/08 03:09:28;;;;;;;;;;;;;;;24.26;69.08;101367.81;7278838;19;153954;-50
2021/09/08 03:11:56;;;;;;;;;;;;;;;24.28;69.38;101364.69;7288405;19;152178;-51
2021/09/08 03:14:23;;;;;;;;;;;;;;;24.27;69.38;101363.00;7280123;19;153973;-51
2021/09/08 03:16:50;;;;;;;;;;;;;;;24.28;69.08;101354.22;7279181;19;152107;-51
2021/09/08 03:19:17;;;;;;;;;;;;;;;24.27;69.25;101355.38;7280312;19;153212;-51
2021/09/08 03:21:44;;;;;;;;;;;;;;;24.26;69.84;101353.69;7279789;19;153233;-50
2021/09/08 03:24:11;;;;;;;;;;;;;;;24.26;69.55;101353.69;7280867;19;151843;-51
2021/09/08 03:26:38;;;;;;;;;;;;;;;24.27;69.64;101348.88;7282912;19;151680;-51
2021/09/08 03:29:05;;;;;;;;;;;;;;;24.27;69.39;101343.25;7278769;19;152592;-51
2021/09/08 03:31:31;;;;;;;;;;;;;;;24.27;69.96;101332.78;7278384;19;154755;-51
2021/09/08 03:33:59;;;;;;;;;;;;;;;24.27;69.75;101335.59;7285917;19;152437;-50
2021/09/08 03:36:25;;;;;;;;;;;;;;;24.27;69.92;101327.13;7279904;19;151884;-50
2021/09/08 03:38:52;;;;;;;;;;;;;;;24.29;69.74;101332.47;7278539;19;151792;-51
2021/09/08 03:41:19;;;;;;;;;;;;;;;24.28;69.85;101325.97;7279905;19;153536;-51
2021/09/08 03:43:46;;;;;;;;;;;;;;;24.29;69.67;101326.81;7276083;19;152460;-51
2021/09/08 03:46:13;;;;;;;;;;;;;;;24.28;69.93;101313.84;7278626;19;153402;-51
2021/09/08 03:48:40;;;;;;;;;;;;;;;24.29;69.81;101309.88;7278411;19;154223;-51
2021/09/08 03:51:10;;;;;;;;;;;;;;;24.28;69.88;101308.19;7275742;19;152376;-51
2021/09/08 03:53:37;;;;;;;;;;;;;;;24.27;69.82;101301.72;7286469;19;153448;-51
2021/09/08 03:56:04;;;;;;;;;;;;;;;24.29;70.08;101295.75;7277570;19;152018;-51
2021/09/08 03:58:31;;;;;;;;;;;;;;;24.29;70.21;101290.94;7272025;19;153364;-51
2021/09/08 04:00:58;;;;;;;;;;;;;;;24.28;70.30;101286.44;7281398;19;153256;-50
2021/09/08 04:03:26;;;;;;;;;;;;;;;24.29;70.11;101285.28;7280685;19;152020;-50
2021/09/08 04:05:53;;;;;;;;;;;;;;;24.30;70.06;101291.78;7280308;19;152739;-51
2021/09/08 04:08:20;;;;;;;;;;;;;;;24.29;70.31;101290.94;7280837;19;153834;-51
2021/09/08 04:10:47;;;;;;;;;;;;;;;24.29;70.19;101285.28;7278113;19;151763;-51
2021/09/08 04:13:14;;;;;;;;;;;;;;;24.29;70.22;101292.94;7280507;19;152613;-51
2021/09/08 04:15:40;;;;;;;;;;;;;;;24.29;69.97;101288.13;7287660;19;153721;-51
2021/09/08 04:18:08;;;;;;;;;;;;;;;24.29;70.37;101284.44;7280903;19;153299;-50
2021/09/08 04:20:34;;;;;;;;;;;;;;;24.29;70.18;101285.28;7284344;19;153991;-51
2021/09/08 04:23:01;;;;;;;;;;;;;;;24.30;70.17;101286.13;7286883;19;152040;-51
2021/09/08 04:25:28;;;;;;;;;;;;;;;24.30;70.24;101292.56;7284820;19;152131;-52
2021/09/08 04:27:55;;;;;;;;;;;;;;;24.30;70.21;101289.75;7285034;19;153831;-51
2021/09/08 04:30:22;;;;;;;;;;;;;;;24.31;70.23;101285.78;7286880;19;152200;-51
2021/09/08 04:32:49;;;;;;;;;;;;;;;24.30;70.06;101286.94;7286793;19;154705;-50
2021/09/08 04:35:16;;;;;;;;;;;;;;;24.30;70.25;101288.94;7284144;19;154073;-51
2021/09/08 04:37:43;;;;;;;;;;;;;;;24.30;69.92;101286.13;7294188;19;152130;-51
2021/09/08 04:40:10;;;;;;;;;;;;;;;24.30;70.49;101286.13;7284441;19;153607;-51
2021/09/08 04:42:37;;;;;;;;;;;;;;;24.29;70.26;101282.47;7284129;19;152426;-50
2021/09/08 04:45:05;;;;;;;;;;;;;;;24.30;70.48;101274.84;7283375;19;153313;-51
2021/09/08 04:47:32;;;;;;;;;;;;;;;24.30;70.71;101274.84;7284677;19;153945;-50
2021/09/08 04:49:59;;;;;;;;;;;;;;;24.31;70.70;101270.81;7286240;19;152634;-50
2021/09/08 04:52:26;;;;;;;;;;;;;;;24.30;70.49;101272.81;7286732;19;153141;-51
2021/09/08 04:54:53;;;;;;;;;;;;;;;24.30;70.55;101267.16;7281031;19;153925;-51
2021/09/08 04:57:20;;;;;;;;;;;;;;;24.30;70.53;101258.69;7286815;19;151885;-51
2021/09/08 04:59:47;;;;;;;;;;;;;;;24.31;70.92;101262.34;7291350;19;153312;-51
2021/09/08 05:02:14;;;;;;;;;;;;;;;24.31;70.62;101257.53;7284045;19;151653;-50
2021/09/08 05:04:41;;;;;;;;;;;;;;;24.32;70.62;101262.03;7286457;19;153296;-50
2021/09/08 05:07:08;;;;;;;;;;;;;;;24.33;70.60;101265.69;7285374;19;152149;-51
2021/09/08 05:09:35;;;;;;;;;;;;;;;24.32;71.00;101258.38;7283857;19;152507;-51
2021/09/08 05:12:02;;;;;;;;;;;;;;;24.32;70.56;101266.84;7282795;19;153144;-50
2021/09/08 05:14:29;;;;;;;;;;;;;;;24.33;70.89;101268.50;7284558;19;154099;-51
2021/09/08 05:16:56;;;;;;;;;;;;;;;24.31;70.58;101263.19;7285782;19;151688;-51
2021/09/08 05:19:23;;;;;;;;;;;;;;;24.32;70.52;101259.22;7285008;19;153889;-51
2021/09/08 05:21:50;;;;;;;;;;;;;;;24.32;70.61;101250.72;7291071;19;153232;-50
2021/09/08 05:24:17;;;;;;;;;;;;;;;24.35;70.63;101257.72;7285215;19;153032;-51
2021/09/08 05:26:44;;;;;;;;;;;;;;;24.31;70.34;101260.38;7284331;19;151961;-50
2021/09/08 05:29:11;;;;;;;;;;;;;;;24.33;70.42;101255.22;7282455;19;151993;-51
2021/09/08 05:31:38;;;;;;;;;;;;;;;24.34;70.50;101250.41;7276497;19;151762;-51
2021/09/08 05:34:05;;;;;;;;;;;;;;;24.33;70.58;101241.09;7284928;19;154549;-50
2021/09/08 05:36:32;;;;;;;;;;;;;;;24.33;70.72;101249.59;7285450;19;151613;-51
2021/09/08 05:38:59;;;;;;;;;;;;;;;24.33;70.58;101234.63;7282944;19;153192;-51
2021/09/08 05:41:26;;;;;;;;;;;;;;;24.32;70.79;101233.78;7283717;19;153923;-50
2021/09/08 05:43:53;;;;;;;;;;;;;;;24.33;70.64;101235.47;7289795;19;152074;-51
2021/09/08 05:46:20;;;;;;;;;;;;;;;24.35;70.50;101232.28;7279081;19;153653;-51
2021/09/08 05:48:47;;;;;;;;;;;;;;;24.33;70.50;101229.81;7281713;19;151925;-50
2021/09/08 05:51:14;;;;;;;;;;;;;;;24.35;70.57;101232.28;7283637;19;152895;-51
2021/09/08 05:53:41;;;;;;;;;;;;;;;24.33;70.77;101232.63;7281456;19;153976;-51
2021/09/08 05:56:08;;;;;;;;;;;;;;;24.34;70.54;101230.66;7285081;19;152286;-51
2021/09/08 05:58:35;;;;;;;;;;;;;;;24.33;70.50;101224.16;7282969;19;153609;-51
2021/09/08 06:01:02;;;;;;;;;;;;;;;24.34;70.67;101220.19;7280631;19;153343;-51
2021/09/08 06:03:29;;;;;;;;;;;;;;;24.34;70.77;101219.34;7288836;19;152035;-51
2021/09/08 06:05:56;;;;;;;;;;;;;;;24.35;70.64;101223.81;7283393;19;153872;-51
2021/09/08 06:08:23;;;;;;;;;;;;;;;24.33;70.89;101215.69;7285131;19;152084;-51
2021/09/08 06:10:50;;;;;;;;;;;;;;;24.34;70.80;101208.88;7281076;19;153080;-51
2021/09/08 06:13:17;;;;;;;;;;;;;;;24.39;70.41;101219.19;7283789;19;153262;-50
2021/09/08 06:15:44;;;;;;;;;;;;;;;24.38;70.56;101228.00;7281194;19;151716;-51
2021/09/08 06:18:11;;;;;;;;;;;;;;;24.36;70.79;101229.16;7282685;19;152725;-51
2021/09/08 06:20:38;;;;;;;;;;;;;;;24.36;70.45;101225.50;7282899;19;153975;-50
2021/09/08 06:23:06;;;;;;;;;;;;;;;24.35;70.57;101224.66;7282981;19;151561;-51
2021/09/08 06:25:35;;;;;;;;;;;;;;;24.35;70.82;101226.63;7288583;19;157716;-51
2021/09/08 06:28:02;;;;;;;;;;;;;;;24.35;70.57;101223.81;7284057;19;152457;-51
2021/09/08 06:30:29;;;;;;;;;;;;;;;24.40;70.75;101229.31;7282805;19;152828;-51
2021/09/08 06:32:56;;;;;;;;;;;;;;;24.42;71.49;101229.00;7282980;19;154289;-50
2021/09/08 06:35:23;;;;;;;;;;;;;;;24.30;66.34;101221.16;7271780;19;153557;-51
2021/09/08 06:37:50;;;;;;;;;;;;;;;24.17;64.97;101224.91;7270891;19;152384;-51
2021/09/08 06:40:17;;;;;;;;;;;;;;;24.08;64.20;101219.22;7280739;19;154424;-50
2021/09/08 06:42:44;;;;;;;;;;;;;;;24.03;63.96;101233.47;7284669;19;152286;-50
2021/09/08 06:45:21;;;;;;;;;;;;;;;23.99;63.95;101234.44;7275256;19;153781;-50
2021/09/08 06:47:48;;;;;;;;;;;;;;;23.93;63.54;101234.63;7283237;19;153323;-51
2021/09/08 06:50:15;;;;;;;;;;;;;;;23.87;63.88;101235.06;7282656;19;152132;-51
2021/09/08 06:52:42;;;;;;;;;;;;;;;23.84;64.14;101230.06;7276702;19;153863;-51
2021/09/08 06:55:09;;;;;;;;;;;;;;;23.82;63.75;101226.72;7279047;19;152530;-51
2021/09/08 06:57:37;;;;;;;;;;;;;;;23.78;64.05;101245.47;7282004;19;153659;-50
2021/09/08 07:00:05;;;;;;;;;;;;;;;23.75;63.91;101240.47;7282811;19;152219;-51
2021/09/08 07:02:31;;;;;;;;;;;;;;;23.77;63.59;101241.81;7282323;19;152137;-51
2021/09/08 07:05:01;;;;;;;;;;;;;;;23.77;63.92;101240.97;7284361;19;153445;-51
2021/09/08 07:07:28;;;;;;;;;;;;;;;23.75;63.63;101246.13;7280614;19;153477;-51
2021/09/08 07:09:55;;;;;;;;;;;;;;;23.73;64.00;101249.25;7289430;19;152109;-50
2021/09/08 07:12:22;;;;;;;;;;;;;;;23.69;63.46;101242.59;7275818;19;152193;-50
2021/09/08 07:14:49;;;;;;;;;;;;;;;23.64;64.09;101242.72;7283206;19;152294;-51
2021/09/08 07:17:16;;;;;;;;;;;;;;;23.65;64.18;101238.75;7282545;19;152645;-51
2021/09/08 07:19:43;;;;;;;;;;;;;;;23.64;64.34;101239.06;7281459;19;153422;-51
2021/09/08 07:22:10;;;;;;;;;;;;;;;23.67;63.83;101238.41;7283071;19;152011;-50
2021/09/08 07:24:38;;;;;;;;;;;;;;;23.62;64.32;101236.56;7281739;19;153943;-51
2021/09/08 07:27:05;;;;;;;;;;;;;;;23.66;65.03;101239.59;7281427;19;154019;-50
2021/09/08 07:29:32;;;;;;;;;;;;;;;23.67;64.75;101230.78;7282464;19;152205;-51
2021/09/08 07:31:59;;;;;;;;;;;;;;;23.69;65.16;101230.47;7286825;19;153448;-51
2021/09/08 07:34:28;;;;;;;;;;;;;;;23.68;65.83;101226.81;7282883;19;152642;-51
2021/09/08 07:36:55;;;;;;;;;;;;;;;23.68;66.05;101231.63;7282330;19;154168;-51
2021/09/08 07:39:22;;;;;;;;;;;;;;;23.67;66.33;101233.63;7280612;19;153583;-50
2021/09/08 07:41:49;;;;;;;;;;;;;;;23.67;65.98;101229.97;7281633;19;151448;-50
2021/09/08 07:44:16;;;;;;;;;;;;;;;23.68;66.50;101235.28;7279556;19;153113;-51
2021/09/08 07:46:43;;;;;;;;;;;;;;;23.67;66.82;101239.25;7275068;19;153372;-50
2021/09/08 07:49:10;;;;;;;;;;;;;;;23.68;66.57;101240.09;7278047;19;152477;-50
2021/09/08 07:51:37;;;;;;;;;;;;;;;23.68;66.88;101234.44;7280248;19;152981;-51
2021/09/08 07:54:04;;;;;;;;;;;;;;;23.67;67.03;101241.25;7284977;19;152213;-50
2021/09/08 07:56:31;;;;;;;;;;;;;;;23.68;67.21;101240.09;7286938;19;151964;-51
2021/09/08 07:58:58;;;;;;;;;;;;;;;23.68;67.22;101240.94;7286868;19;153305;-51
2021/09/08 08:01:25;;;;;;;;;;;;;;;23.70;67.17;101249.09;7287993;19;151926;-51
2021/09/08 08:03:53;;;;;;;;;;;;;;;23.69;67.67;101242.59;7288062;19;152659;-51
2021/09/08 08:06:20;;;;;;;;;;;;;;;23.70;67.18;101243.44;7285965;19;153207;-51
2021/09/08 08:08:47;;;;;;;;;;;;;;;23.69;67.79;101242.59;7288603;19;151965;-51
2021/09/08 08:11:14;;;;;;;;;;;;;;;23.71;67.56;101237.44;7287556;19;153769;-51
2021/09/08 08:13:41;;;;;;;;;;;;;;;23.73;67.33;101242.78;7294705;19;153271;-50
2021/09/08 08:16:24;;;;;;;;;;;;;;;23.73;67.62;101237.97;7288084;19;153050;-51
2021/09/08 08:18:51;;;;;;;;;;;;;;;23.70;67.75;101227.34;7286963;19;154033;-51
2021/09/08 08:21:18;;;;;;;;;;;;;;;23.71;67.95;101220.53;7287192;19;152313;-51
2021/09/08 08:23:45;;;;;;;;;;;;;;;23.72;67.77;101221.34;7287844;19;151948;-50
2021/09/08 08:26:12;;;;;;;;;;;;;;;23.71;67.82;101216.91;7285759;19;153255;-51
2021/09/08 08:28:39;;;;;;;;;;;;;;;23.71;68.06;101209.25;7274366;19;152609;-51
2021/09/08 08:31:06;;;;;;;;;;;;;;;23.74;67.44;101196.47;7287149;19;151956;-51
2021/09/08 08:33:33;;;;;;;;;;;;;;;23.73;67.73;101198.47;7284237;19;154050;-51
2021/09/08 08:36:01;;;;;;;;;;;;;;;23.73;68.03;101190.00;7295744;19;152774;-50
2021/09/08 08:38:30;;;;;;;;;;;;;;;23.73;68.27;101194.81;7283788;19;154185;-50
2021/09/08 08:40:57;;;;;;;;;;;;;;;23.74;68.14;101193.66;7285412;19;152301;-51
2021/09/08 08:43:24;;;;;;;;;;;;;;;23.74;67.81;101185.19;7288546;19;153272;-51
2021/09/08 08:45:52;;;;;;;;;;;;;;;23.75;67.65;101184.06;7283449;19;153490;-50
2021/09/08 08:48:19;;;;;;;;;;;;;;;23.76;67.97;101175.25;7279239;19;152240;-50
2021/09/08 08:50:46;;;;;;;;;;;;;;;23.78;67.72;101175.75;7286253;19;153641;-50
2021/09/08 08:53:13;;;;;;;;;;;;;;;23.79;67.76;101176.59;7282531;19;153364;-51
2021/09/08 08:55:40;;;;;;;;;;;;;;;23.80;67.63;101179.06;7285712;19;151936;-51
2021/09/08 08:58:07;;;;;;;;;;;;;;;23.81;67.43;101175.09;7292311;19;152786;-50
2021/09/08 09:00:34;;;;;;;;;;;;;;;23.82;67.69;101179.59;7286172;19;152035;-51
2021/09/08 09:03:01;;;;;;;;;;;;;;;23.84;67.72;101173.63;7287751;19;153052;-51
2021/09/08 09:05:32;;;;;;;;;;;;;;;23.86;67.55;101163.66;7284447;19;153791;-51
2021/09/08 09:07:59;;;;;;;;;;;;;;;23.87;67.42;101158.88;7288024;19;151971;-51
2021/09/08 09:10:27;;;;;;;;;;;;;;;23.88;67.41;101157.72;7284763;19;153083;-51
2021/09/08 09:12:53;;;;;;;;;;;;;;;23.89;67.54;101156.56;7280646;19;152699;-50
2021/09/08 09:15:21;;;;;;;;;;;;;;;23.89;67.44;101148.91;7285157;19;153126;-50
2021/09/08 09:17:51;;;;;;;;;;;;;;;23.90;67.20;101144.09;7285176;19;153365;-51
2021/09/08 09:20:21;;;;;;;;;;;;;;;23.92;67.27;101142.63;7292192;19;154616;-51
2021/09/08 09:22:49;;;;;;;;;;;;;;;23.92;67.22;101153.06;7284770;19;152714;-50
2021/09/08 09:25:18;;;;;;;;;;;;;;;23.93;67.31;101152.75;7283769;19;152306;-51
2021/09/08 09:27:49;;;;;;;;;;;;;;;23.96;67.02;101156.91;7286002;19;156093;-51
2021/09/08 09:30:21;;;;;;;;;;;;;;;23.96;67.29;101147.59;7285125;19;153991;-50
2021/09/08 09:32:50;;;;;;;;;;;;;;;23.98;67.41;101148.97;7282855;19;153883;-51
2021/09/08 09:35:18;;;;;;;;;;;;;;;23.99;67.17;101146.94;7283582;19;152151;-51
2021/09/08 09:37:47;;;;;;;;;;;;;;;24.00;67.19;101157.91;7284289;19;152711;-51
2021/09/08 09:40:14;;;;;;;;;;;;;;;24.01;67.24;101162.41;7280413;19;152763;-50
2021/09/08 09:42:43;;;;;;;;;;;;;;;24.03;67.04;101162.88;7292910;19;151774;-50
2021/09/08 09:45:10;;;;;;;;;;;;;;;24.04;67.23;101161.75;7283457;19;153982;-50
2021/09/08 09:47:38;;;;;;;;;;;;;;;24.04;67.11;101160.91;7282109;19;152018;-50
2021/09/08 09:50:06;;;;;;;;;;;;;;;24.07;67.44;101160.28;7281216;19;151845;-51
2021/09/08 09:52:35;;;;;;;;;;;;;;;24.06;67.46;101162.25;7278598;19;154130;-51
2021/09/08 09:55:03;;;;;;;;;;;;;;;24.08;67.02;101162.75;7281109;19;151871;-50
2021/09/08 09:57:31;;;;;;;;;;;;;;;24.08;66.97;101165.56;7284559;19;153024;-51
2021/09/08 09:59:58;;;;;;;;;;;;;;;24.10;67.22;101149.16;7282878;19;154629;-51
2021/09/08 10:02:26;;;;;;;;;;;;;;;24.11;67.32;101148.00;7292309;19;151968;-50
2021/09/08 10:04:53;;;;;;;;;;;;;;;24.13;67.08;101154.13;7283033;19;152000;-50
2021/09/08 10:07:23;;;;;;;;;;;;;;;24.13;66.78;101151.31;7284499;19;152168;-51
2021/09/08 10:09:51;;;;;;;;;;;;;;;24.14;67.04;101146.50;7281767;19;152838;-51
2021/09/08 10:12:20;;;;;;;;;;;;;;;24.15;66.91;101142.53;7282550;19;152574;-51
2021/09/08 10:14:52;;;;;;;;;;;;;;;24.16;66.67;101142.22;7283166;19;151655;-51
2021/09/08 10:17:19;;;;;;;;;;;;;;;24.19;66.85;101135.09;7283644;19;154121;-51
2021/09/08 10:19:49;;;;;;;;;;;;;;;24.18;66.78;101131.44;7280368;19;153756;-51
2021/09/08 10:22:16;;;;;;;;;;;;;;;24.21;66.61;101127.94;7283508;19;151744;-50
2021/09/08 10:24:46;;;;;;;;;;;;;;;24.21;66.83;101124.31;7289488;19;153380;-51
2021/09/08 10:27:16;;;;;;;;;;;;;;;24.21;66.55;101118.66;7281429;19;152108;-51
2021/09/08 10:29:47;;;;;;;;;;;;;;;24.23;66.37;101122.81;7281334;19;152197;-51
2021/09/08 10:32:14;;;;;;;;;;;;;;;24.25;66.86;101102.72;7281396;19;153214;-50
2021/09/08 10:34:41;;;;;;;;;;;;;;;24.24;66.83;101109.50;7281274;19;151979;-51
2021/09/08 10:37:10;;;;;;;;;;;;;;;24.25;66.53;101099.88;7283561;19;152761;-50
2021/09/08 10:39:37;;;;;;;;;;;;;;;24.27;66.62;101095.56;7279362;19;154109;-50
2021/09/08 10:42:04;;;;;;;;;;;;;;;24.28;66.18;101091.59;7280304;19;151998;-51
2021/09/08 10:44:34;;;;;;;;;;;;;;;24.29;66.27;101089.59;7282304;19;153058;-50
2021/09/08 10:47:01;;;;;;;;;;;;;;;24.30;66.32;101092.06;7286383;19;154047;-50
2021/09/08 10:49:31;;;;;;;;;;;;;;;24.32;66.43;101092.59;7279352;19;152493;-51
2021/09/08 10:51:58;;;;;;;;;;;;;;;24.33;66.24;101082.94;7277873;19;153188;-50
2021/09/08 10:54:25;;;;;;;;;;;;;;;24.35;66.23;101089.09;7281921;19;151886;-51
2021/09/08 10:56:52;;;;;;;;;;;;;;;24.38;66.41;101081.13;7281223;19;154190;-51
2021/09/08 10:59:19;;;;;;;;;;;;;;;24.39;66.07;101077.97;7279355;19;153531;-51
2021/09/08 11:01:46;;;;;;;;;;;;;;;24.41;66.30;101071.97;7283362;19;151745;-51
2021/09/08 11:04:18;;;;;;;;;;;;;;;24.43;66.10;101064.03;7280939;19;153425;-51
2021/09/08 11:06:46;;;;;;;;;;;;;;;24.43;66.24;101061.19;7281828;19;153365;-51
2021/09/08 11:09:15;;;;;;;;;;;;;;;24.46;65.88;101067.00;7288664;19;152110;-51
2021/09/08 11:11:45;;;;;;;;;;;;;;;24.46;66.14;101057.69;7281695;19;154424;-51
2021/09/08 11:14:12;;;;;;;;;;;;;;;24.49;65.68;101045.72;7276770;19;151945;-50
2021/09/08 11:16:39;;;;;;;;;;;;;;;24.52;66.04;101034.59;7283092;19;153310;-50
2021/09/08 11:19:06;;;;;;;;;;;;;;;24.53;65.65;101041.91;7281602;19;154203;-51
2021/09/08 11:21:33;;;;;;;;;;;;;;;24.58;65.60;101047.38;7281102;19;151947;-51
2021/09/08 11:24:02;;;;;;;;;;;;;;;24.56;65.47;101038.41;7280054;19;154169;-51
2021/09/08 11:26:31;;;;;;;;;;;;;;;24.59;65.27;101037.75;7280613;19;152792;-51
2021/09/08 11:28:59;;;;;;;;;;;;;;;24.61;64.86;101026.94;7281570;19;152313;-51
2021/09/08 11:31:31;;;;;;;;;;;;;;;24.63;65.02;101040.72;7287888;19;153154;-51
2021/09/08 11:33:58;;;;;;;;;;;;;;;24.64;64.83;101031.09;7278112;19;151792;-51
2021/09/08 11:36:25;;;;;;;;;;;;;;;24.65;64.78;101030.75;7282260;19;153082;-51
2021/09/08 11:38:57;;;;;;;;;;;;;;;24.66;64.88;101028.78;7280235;19;153634;-51
2021/09/08 11:41:25;;;;;;;;;;;;;;;24.68;64.43;101027.25;7281677;19;152269;-50
2021/09/08 11:43:53;;;;;;;;;;;;;;;24.66;64.66;101025.94;7280744;19;152600;-51
2021/09/08 11:46:21;;;;;;;;;;;;;;;24.69;64.90;101022.44;7278693;19;153324;-51
2021/09/08 11:48:49;;;;;;;;;;;;;;;24.70;64.42;101024.09;7279353;19;153191;-51
2021/09/08 11:51:18;;;;;;;;;;;;;;;24.71;64.55;101034.25;7277021;19;151883;-51
2021/09/08 11:53:46;;;;;;;;;;;;;;;24.70;64.19;101022.13;7283777;19;154132;-51
2021/09/08 11:56:15;;;;;;;;;;;;;;;24.73;64.35;101014.94;7280271;19;153524;-51
2021/09/08 11:58:43;;;;;;;;;;;;;;;24.73;64.46;101009.28;7279100;19;153781;-51
2021/09/08 12:01:11;;;;;;;;;;;;;;;24.74;64.10;101008.97;7279231;19;152051;-50
2021/09/08 12:03:39;;;;;;;;;;;;;;;24.75;64.33;101015.47;7277267;19;151761;-51
2021/09/08 12:06:10;;;;;;;;;;;;;;;24.77;64.05;101010.28;7279931;19;152679;-50
2021/09/08 12:08:37;;;;;;;;;;;;;;;24.77;64.16;101018.75;7282161;19;152035;-50
2021/09/08 12:11:04;;;;;;;;;;;;;;;24.79;64.17;101016.44;7277253;19;152786;-50
2021/09/08 12:13:33;;;;;;;;;;;;;;;24.79;64.01;101017.28;7282838;19;153970;-51
2021/09/08 12:16:00;;;;;;;;;;;;;;;24.79;64.05;101014.44;7278909;19;153058;-50
2021/09/08 12:18:28;;;;;;;;;;;;;;;24.81;63.93;101003.63;7280377;19;154486;-51
2021/09/08 12:21:15;;;;;;;;;;;;;;;24.83;64.21;101010.94;7280376;19;151967;-50
2021/09/08 12:23:41;;;;;;;;;;;;;;;24.84;63.51;101007.78;7279717;19;152590;-51
2021/09/08 12:26:09;;;;;;;;;;;;;;;24.83;63.82;101008.94;7279093;19;154319;-51
2021/09/08 12:28:37;;;;;;;;;;;;;;;24.84;63.77;101004.13;7279874;19;152330;-51